サンフランシスコ の空港の天気 - METARとTAF

サンフランシスコ国際空港 ( KSFO / SFO ) - アメリカ カリフォルニア州サンマテオ郡
飛行場実況気象(Metar)
観測時間04/26 03:56 PDT (04/26 10:56 UTC)
風向・風速西南西 4m/s
視程10km以上
天気現象
少しの雲 雲底高度 6100m
気温11.1℃
湿度74%
気圧1017.4hPa
METARKSFO 261056Z 25007KT 10SM FEW200 11/07 A3005 RMK AO2 SLP174 T01110067
過去の天気等 Google飛行場航空写真 Wunderground天気予報

過去48時間のMETAR

飛行場予報(TAF)
発表時間: 4/26 02:01 PDT (4/26 09:01 UTC)
予報対象時間: 26日2時 PDT ~ 27日5時 PDT
風向・風速西 5m/s
視程10km以上
全天の4割程度の雲 雲底高度 370m
26日4時 PDT から
風向・風速西 3m/s
視程10km以上
全天の8割程度の雲 雲底高度 370m
26日5時 PDT から
風向・風速西 3m/s
視程10km以上
全天を覆う雲 雲底高度 370m
26日10時 PDT から
風向・風速西 4m/s
視程10km以上
少しの雲 雲底高度 490m
26日13時 PDT から
風向・風速西北西 7m/s 瞬間風速 10m/s
視程10km以上
少しの雲 雲底高度 610m
26日21時 PDT から
風向・風速西北西 5m/s
視程10km以上
少しの雲 雲底高度 460m
27日2時 PDT から
風向・風速西北西 4m/s
視程10km以上
全天の4割程度の雲 雲底高度 370m
KSFO 260901Z 2609/2712 28010KT P6SM SCT012
FM261100 27006KT P6SM BKN012
FM261200 27005KT P6SM OVC012
FM261700 28007KT P6SM FEW016
FM262000 30014G19KT P6SM FEW020
FM270400 29010KT P6SM FEW015
FM270900 29008KT P6SM SCT012